createdAt,value
2022-09-29T00:00:35.498Z,100.00
2022-09-29T00:03:02.156Z,100.00
2022-09-29T00:05:28.567Z,100.00
2022-09-29T00:07:54.786Z,100.00
2022-09-29T00:10:21.325Z,100.00
2022-09-29T00:12:47.538Z,100.00
2022-09-29T00:15:13.929Z,100.00
2022-09-29T00:17:46.592Z,100.00
2022-09-29T00:20:24.401Z,100.00
2022-09-29T00:22:51.681Z,100.00
2022-09-29T00:25:18.798Z,100.00
2022-09-29T00:27:45.425Z,100.00
2022-09-29T00:30:12.662Z,100.00
2022-09-29T00:32:38.891Z,99.64
2022-09-29T00:35:08.365Z,100.00
2022-09-29T00:37:35.283Z,100.00
2022-09-29T00:40:01.835Z,100.00
2022-09-29T00:42:28.751Z,100.00
2022-09-29T00:45:17.880Z,100.00
2022-09-29T00:47:48.162Z,100.00
2022-09-29T00:50:20.579Z,99.84
2022-09-29T00:52:53.211Z,99.82
2022-09-29T00:55:31.876Z,99.75
2022-09-29T00:58:06.102Z,100.00
2022-09-29T01:00:33.329Z,100.00
2022-09-29T01:03:04.925Z,100.00
2022-09-29T01:05:37.808Z,100.00
2022-09-29T01:08:11.474Z,100.00
2022-09-29T01:10:39.602Z,100.00
2022-09-29T01:13:06.260Z,100.00
2022-09-29T01:15:32.899Z,100.00
2022-09-29T01:17:59.252Z,100.00
2022-09-29T01:20:26.374Z,100.00
2022-09-29T01:23:30.037Z,100.00
2022-09-29T01:26:18.502Z,100.00
2022-09-29T01:28:56.755Z,100.00
2022-09-29T01:32:00.476Z,100.00
2022-09-29T01:34:26.606Z,100.00
2022-09-29T01:36:56.072Z,100.00
2022-09-29T01:39:31.217Z,100.00
2022-09-29T01:42:03.575Z,100.00
2022-09-29T01:44:44.993Z,100.00
2022-09-29T01:47:13.831Z,100.00
2022-09-29T01:49:44.672Z,100.00
2022-09-29T01:52:18.265Z,100.00
2022-09-29T01:54:48.868Z,100.00
2022-09-29T01:57:23.276Z,100.00
2022-09-29T01:59:55.534Z,100.00
2022-09-29T02:02:28.252Z,100.00
2022-09-29T02:04:58.341Z,100.00
2022-09-29T02:07:33.311Z,100.00
2022-09-29T02:10:04.109Z,100.00
2022-09-29T02:12:32.907Z,100.00
2022-09-29T02:15:02.613Z,100.00
2022-09-29T02:17:36.691Z,100.00
2022-09-29T02:20:04.018Z,100.00
2022-09-29T02:22:30.247Z,100.00
2022-09-29T02:24:59.164Z,100.00
2022-09-29T02:27:29.546Z,100.00
2022-09-29T02:29:58.851Z,100.00
2022-09-29T02:32:25.760Z,100.00
2022-09-29T02:34:52.666Z,100.00
2022-09-29T02:37:21.917Z,100.00
2022-09-29T02:40:01.261Z,100.00
2022-09-29T02:42:38.601Z,100.00
2022-09-29T02:45:29.936Z,100.00
2022-09-29T02:48:19.611Z,100.00
2022-09-29T02:50:48.843Z,100.00
2022-09-29T02:53:40.275Z,100.00
2022-09-29T02:56:31.836Z,100.00
2022-09-29T02:59:04.844Z,100.00
2022-09-29T03:01:32.515Z,100.00
2022-09-29T03:04:03.953Z,100.00
2022-09-29T03:06:31.058Z,100.00
2022-09-29T03:08:57.325Z,100.00
2022-09-29T03:11:23.880Z,100.00
2022-09-29T03:13:50.117Z,100.00
2022-09-29T03:16:16.443Z,100.00
2022-09-29T03:18:44.106Z,100.00
2022-09-29T03:21:10.336Z,100.00
2022-09-29T03:23:36.562Z,100.00
2022-09-29T03:26:03.099Z,100.00
2022-09-29T03:28:29.370Z,100.00
2022-09-29T03:30:55.726Z,100.00
2022-09-29T03:33:22.258Z,100.00
2022-09-29T03:35:48.524Z,100.00
2022-09-29T03:38:14.812Z,100.00
2022-09-29T03:40:41.360Z,100.00
2022-09-29T03:43:07.610Z,100.00
2022-09-29T03:45:33.877Z,100.00
2022-09-29T03:48:00.550Z,100.00
2022-09-29T03:50:26.795Z,100.00
2022-09-29T03:52:53.043Z,100.00
2022-09-29T03:55:19.611Z,100.00
2022-09-29T03:57:46.405Z,100.00
2022-09-29T04:00:13.202Z,100.00
2022-09-29T04:02:39.710Z,100.00
2022-09-29T04:05:06.328Z,100.00
2022-09-29T04:07:32.639Z,100.00
2022-09-29T04:09:59.200Z,100.00
2022-09-29T04:12:25.483Z,100.00
2022-09-29T04:14:51.754Z,100.00
2022-09-29T04:17:18.274Z,100.00
2022-09-29T04:19:44.499Z,100.00
2022-09-29T04:22:11.652Z,100.00
2022-09-29T04:24:38.621Z,100.00
2022-09-29T04:27:04.869Z,100.00
2022-09-29T04:29:31.163Z,100.00
2022-09-29T04:31:57.814Z,100.00
2022-09-29T04:34:24.144Z,100.00
2022-09-29T04:36:50.438Z,100.00
2022-09-29T04:39:17.037Z,100.00
2022-09-29T04:41:43.326Z,100.00
2022-09-29T04:44:09.651Z,100.00
2022-09-29T04:46:36.204Z,100.00
2022-09-29T04:49:02.490Z,100.00
2022-09-29T04:51:28.739Z,100.00
2022-09-29T04:53:55.377Z,100.00
2022-09-29T04:56:21.667Z,100.00
2022-09-29T04:58:47.910Z,100.00
2022-09-29T05:01:15.841Z,100.00
2022-09-29T05:03:42.475Z,100.00
2022-09-29T05:06:09.966Z,100.00
2022-09-29T05:08:36.754Z,100.00
2022-09-29T05:11:05.419Z,100.00
2022-09-29T05:13:31.772Z,100.00
2022-09-29T05:15:58.457Z,100.00
2022-09-29T05:18:25.326Z,100.00
2022-09-29T05:21:10.659Z,100.00
2022-09-29T05:23:38.828Z,100.00
2022-09-29T05:26:08.856Z,100.00
2022-09-29T05:28:36.048Z,100.00
2022-09-29T05:31:07.586Z,100.00
2022-09-29T05:33:34.825Z,100.00
2022-09-29T05:36:01.323Z,100.00
2022-09-29T05:38:28.172Z,100.00
2022-09-29T05:40:54.440Z,100.00
2022-09-29T05:43:20.746Z,100.00
2022-09-29T05:45:47.308Z,100.00
2022-09-29T05:48:13.576Z,100.00
2022-09-29T05:50:43.275Z,100.00
2022-09-29T05:53:10.784Z,100.00
2022-09-29T05:55:38.260Z,100.00
2022-09-29T05:58:06.083Z,100.00
2022-09-29T06:00:33.160Z,100.00
2022-09-29T06:03:00.261Z,100.00
2022-09-29T06:05:27.281Z,100.00
2022-09-29T06:07:54.674Z,100.00
2022-09-29T06:10:21.483Z,100.00
2022-09-29T06:12:48.020Z,100.00
2022-09-29T06:15:14.251Z,100.00
2022-09-29T06:17:40.777Z,100.00
2022-09-29T06:20:07.326Z,100.00
2022-09-29T06:22:33.800Z,100.00
2022-09-29T06:25:00.318Z,100.00
2022-09-29T06:27:26.545Z,100.00
2022-09-29T06:29:52.936Z,100.00
2022-09-29T06:32:19.554Z,100.00
2022-09-29T06:35:12.147Z,100.00
2022-09-29T06:37:40.326Z,100.00
2022-09-29T06:40:11.048Z,100.00
2022-09-29T06:42:38.893Z,100.00
2022-09-29T06:45:07.415Z,100.00
2022-09-29T06:47:33.637Z,100.00
2022-09-29T06:50:12.354Z,100.00
2022-09-29T06:52:55.405Z,100.00
2022-09-29T06:55:25.001Z,100.00
2022-09-29T06:57:51.703Z,100.00
2022-09-29T07:00:18.154Z,100.00
2022-09-29T07:02:46.563Z,100.00
2022-09-29T07:05:13.202Z,100.00
2022-09-29T07:07:39.444Z,100.00
2022-09-29T07:10:06.036Z,100.00
2022-09-29T07:12:32.632Z,100.00
2022-09-29T07:14:58.951Z,100.00
2022-09-29T07:17:25.209Z,100.00
2022-09-29T07:19:52.445Z,100.00
2022-09-29T07:22:18.692Z,100.00
2022-09-29T07:24:45.233Z,100.00
2022-09-29T07:27:11.779Z,100.00
2022-09-29T07:29:38.056Z,100.00
2022-09-29T07:32:05.841Z,100.00
2022-09-29T07:34:32.814Z,100.00
2022-09-29T07:36:59.162Z,100.00
2022-09-29T07:39:25.646Z,100.00
2022-09-29T07:41:52.233Z,100.00
2022-09-29T07:44:18.591Z,100.00
2022-09-29T07:46:45.219Z,100.00
2022-09-29T07:49:11.807Z,100.00
2022-09-29T07:51:39.027Z,100.00
2022-09-29T07:54:07.731Z,100.00
2022-09-29T07:56:35.758Z,100.00
2022-09-29T07:59:03.384Z,100.00
2022-09-29T08:01:30.261Z,100.00
2022-09-29T08:03:56.853Z,100.00
2022-09-29T08:06:24.958Z,100.00
2022-09-29T08:09:02.920Z,100.00
2022-09-29T08:11:32.656Z,100.00
2022-09-29T08:14:01.081Z,100.00
2022-09-29T08:16:27.655Z,100.00
2022-09-29T08:18:54.357Z,100.00
2022-09-29T08:21:20.602Z,100.00
2022-09-29T08:23:46.862Z,100.00
2022-09-29T08:26:16.095Z,100.00
2022-09-29T08:28:43.314Z,100.00
2022-09-29T08:31:14.204Z,100.00
2022-09-29T08:33:40.866Z,100.00
2022-09-29T08:36:14.593Z,100.00
2022-09-29T08:38:45.793Z,100.00
2022-09-29T08:41:34.079Z,100.00
2022-09-29T08:44:26.163Z,98.68
2022-09-29T08:47:41.812Z,95.64
2022-09-29T08:50:32.135Z,96.16
2022-09-29T08:53:02.648Z,94.45
2022-09-29T08:55:50.988Z,91.63
2022-09-29T08:58:17.528Z,90.06
2022-09-29T09:00:59.057Z,90.12
2022-09-29T09:04:16.328Z,92.60
2022-09-29T09:06:55.122Z,93.51
2022-09-29T09:09:32.368Z,95.00
2022-09-29T09:12:26.827Z,96.63
2022-09-29T09:15:14.185Z,98.90
2022-09-29T09:18:16.326Z,97.97
2022-09-29T09:21:18.710Z,100.00
2022-09-29T09:23:53.334Z,100.00
2022-09-29T09:26:32.228Z,100.00
2022-09-29T09:29:12.359Z,100.00
2022-09-29T09:32:00.207Z,100.00
2022-09-29T09:34:43.495Z,100.00
2022-09-29T09:37:20.813Z,100.00
2022-09-29T09:40:24.615Z,97.22
2022-09-29T09:43:13.711Z,94.49
2022-09-29T09:45:50.228Z,89.30
2022-09-29T09:48:32.009Z,87.59
2022-09-29T09:51:20.815Z,90.54
2022-09-29T09:53:48.477Z,92.13
2022-09-29T09:56:52.795Z,93.10
2022-09-29T09:59:27.997Z,93.00
2022-09-29T10:01:54.631Z,94.63
2022-09-29T10:04:21.788Z,94.97
2022-09-29T10:06:48.060Z,96.08
2022-09-29T10:09:15.465Z,96.82
2022-09-29T10:11:43.968Z,98.34
2022-09-29T10:14:14.721Z,97.42
2022-09-29T10:16:49.040Z,96.28
2022-09-29T10:19:21.872Z,91.51
2022-09-29T10:21:48.117Z,87.85
2022-09-29T10:24:23.277Z,81.50
2022-09-29T10:26:52.342Z,78.23
2022-09-29T10:29:33.696Z,80.35
2022-09-29T10:32:09.577Z,80.60
2022-09-29T10:34:38.496Z,79.81
2022-09-29T10:37:08.006Z,81.33
2022-09-29T10:39:42.906Z,77.05
2022-09-29T10:42:25.931Z,71.73
2022-09-29T10:45:14.065Z,71.65
2022-09-29T10:47:42.739Z,73.37
2022-09-29T10:50:21.215Z,76.71
2022-09-29T10:52:59.136Z,79.79
2022-09-29T10:55:26.827Z,83.31
2022-09-29T10:57:56.108Z,85.05
2022-09-29T11:00:31.329Z,87.40
2022-09-29T11:03:19.851Z,87.71
2022-09-29T11:05:59.002Z,90.38
2022-09-29T11:08:27.777Z,92.89
2022-09-29T11:11:04.874Z,95.61
2022-09-29T11:13:39.455Z,96.03
2022-09-29T11:16:15.243Z,99.41
2022-09-29T11:18:43.818Z,100.00
2022-09-29T11:21:25.613Z,100.00
2022-09-29T11:24:17.256Z,100.00
2022-09-29T11:26:47.773Z,100.00
2022-09-29T11:29:38.846Z,100.00
2022-09-29T11:32:50.250Z,100.00
2022-09-29T11:35:19.976Z,100.00
2022-09-29T11:38:13.840Z,100.00
2022-09-29T11:41:05.308Z,100.00
2022-09-29T11:43:50.715Z,100.00
2022-09-29T11:46:29.085Z,100.00
2022-09-29T11:49:24.277Z,100.00
2022-09-29T11:52:03.248Z,100.00
2022-09-29T11:55:00.787Z,100.00
2022-09-29T11:57:42.731Z,100.00
2022-09-29T12:01:26.775Z,100.00
2022-09-29T12:04:11.415Z,100.00
2022-09-29T12:06:43.633Z,100.00
2022-09-29T12:09:33.324Z,100.00
2022-09-29T12:12:22.669Z,100.00
2022-09-29T12:15:15.522Z,100.00
2022-09-29T12:17:44.675Z,100.00
2022-09-29T12:20:19.843Z,100.00
2022-09-29T12:22:47.744Z,100.00
2022-09-29T12:25:17.393Z,100.00
2022-09-29T12:27:45.626Z,100.00
2022-09-29T12:30:39.106Z,100.00
2022-09-29T12:33:29.787Z,100.00
2022-09-29T12:36:48.910Z,100.00
2022-09-29T12:39:21.344Z,100.00
2022-09-29T12:42:21.806Z,100.00
2022-09-29T12:44:57.498Z,100.00
2022-09-29T12:47:44.932Z,100.00
2022-09-29T12:50:49.914Z,100.00
2022-09-29T12:53:22.276Z,100.00
2022-09-29T12:56:05.865Z,100.00
2022-09-29T12:58:41.319Z,100.00
2022-09-29T13:01:30.859Z,100.00
2022-09-29T13:04:15.351Z,100.00
2022-09-29T13:06:57.510Z,100.00
2022-09-29T13:09:48.700Z,100.00
2022-09-29T13:12:36.128Z,100.00
2022-09-29T13:15:47.655Z,100.00
2022-09-29T13:18:53.963Z,100.00
2022-09-29T13:21:55.133Z,98.02
2022-09-29T13:24:28.265Z,92.76
2022-09-29T13:27:00.409Z,91.45
2022-09-29T13:29:27.976Z,93.35
2022-09-29T13:31:56.050Z,98.47
2022-09-29T13:34:32.967Z,96.52
2022-09-29T13:37:20.331Z,97.80
2022-09-29T13:40:04.566Z,98.70
2022-09-29T13:42:47.313Z,99.05
2022-09-29T13:45:36.529Z,99.99
2022-09-29T13:48:31.870Z,100.00
2022-09-29T13:51:05.160Z,100.00
2022-09-29T13:53:36.148Z,100.00
2022-09-29T13:56:02.325Z,99.08
2022-09-29T13:58:29.394Z,96.62
2022-09-29T14:00:58.902Z,95.83
2022-09-29T14:03:36.801Z,95.82
2022-09-29T14:06:39.754Z,96.51
2022-09-29T14:09:08.470Z,97.33
2022-09-29T14:11:35.988Z,96.15
2022-09-29T14:14:17.447Z,95.51
2022-09-29T14:17:09.328Z,95.63
2022-09-29T14:19:42.095Z,94.91
2022-09-29T14:22:26.469Z,95.97
2022-09-29T14:24:55.611Z,96.47
2022-09-29T14:27:35.275Z,99.01
2022-09-29T14:30:16.480Z,99.92
2022-09-29T14:32:56.298Z,97.83
2022-09-29T14:35:38.859Z,97.94
2022-09-29T14:38:54.066Z,96.54
2022-09-29T14:41:34.303Z,97.53
2022-09-29T14:44:10.087Z,97.07
2022-09-29T14:46:58.361Z,92.10
2022-09-29T14:50:17.324Z,95.28
2022-09-29T14:52:53.027Z,99.55
2022-09-29T14:55:49.605Z,97.63
2022-09-29T14:58:39.208Z,100.00
2022-09-29T15:01:17.858Z,100.00
2022-09-29T15:03:48.125Z,100.00
2022-09-29T15:06:26.257Z,100.00
2022-09-29T15:08:57.063Z,97.28
2022-09-29T15:11:31.813Z,100.00
2022-09-29T15:13:59.645Z,100.00
2022-09-29T15:16:44.385Z,100.00
2022-09-29T15:19:14.039Z,100.00
2022-09-29T15:21:52.293Z,100.00
2022-09-29T15:24:38.355Z,100.00
2022-09-29T15:27:06.256Z,100.00
2022-09-29T15:29:33.068Z,100.00
2022-09-29T15:31:59.478Z,100.00
2022-09-29T15:34:25.832Z,100.00
2022-09-29T15:36:54.558Z,100.00
2022-09-29T15:39:38.727Z,100.00
2022-09-29T15:42:19.454Z,100.00
2022-09-29T15:44:47.733Z,100.00
2022-09-29T15:47:23.101Z,100.00
2022-09-29T15:49:51.707Z,100.00
2022-09-29T15:52:22.361Z,100.00
2022-09-29T15:54:49.214Z,100.00
2022-09-29T15:57:49.939Z,100.00
2022-09-29T16:00:22.186Z,100.00
2022-09-29T16:03:02.292Z,100.00
2022-09-29T16:05:31.726Z,100.00
2022-09-29T16:08:15.920Z,100.00
2022-09-29T16:11:03.018Z,100.00
2022-09-29T16:13:34.839Z,100.00
2022-09-29T16:16:04.498Z,100.00
2022-09-29T16:18:42.005Z,100.00
2022-09-29T16:21:11.247Z,100.00
2022-09-29T16:24:02.490Z,100.00
2022-09-29T16:26:31.610Z,100.00
2022-09-29T16:29:00.136Z,100.00
2022-09-29T16:31:31.005Z,100.00
2022-09-29T16:34:02.560Z,100.00
2022-09-29T16:36:34.734Z,100.00
2022-09-29T16:39:01.834Z,100.00
2022-09-29T16:41:37.904Z,100.00
2022-09-29T16:44:06.823Z,100.00
2022-09-29T16:46:34.198Z,100.00
2022-09-29T16:49:00.537Z,100.00
2022-09-29T16:51:38.617Z,100.00
2022-09-29T16:54:05.565Z,100.00
2022-09-29T16:56:36.702Z,100.00
2022-09-29T16:59:12.837Z,100.00
2022-09-29T17:01:41.335Z,100.00
2022-09-29T17:04:08.409Z,100.00
2022-09-29T17:06:34.756Z,100.00
2022-09-29T17:09:01.405Z,100.00
2022-09-29T17:11:28.763Z,100.00
2022-09-29T17:13:57.260Z,100.00
2022-09-29T17:16:25.222Z,100.00
2022-09-29T17:18:53.079Z,100.00
2022-09-29T17:21:20.108Z,100.00
2022-09-29T17:23:46.754Z,100.00
2022-09-29T17:26:54.413Z,100.00
2022-09-29T17:29:20.927Z,100.00
2022-09-29T17:31:47.156Z,100.00
2022-09-29T17:34:13.830Z,100.00
2022-09-29T17:36:40.548Z,100.00
2022-09-29T17:39:06.847Z,100.00
2022-09-29T17:41:33.998Z,100.00
2022-09-29T17:44:04.316Z,100.00
2022-09-29T17:46:30.592Z,100.00
2022-09-29T17:48:56.897Z,100.00
2022-09-29T17:51:23.419Z,100.00
2022-09-29T17:53:49.682Z,100.00
2022-09-29T17:56:25.900Z,100.00
2022-09-29T17:58:53.879Z,100.00
2022-09-29T18:01:22.553Z,100.00
2022-09-29T18:03:51.020Z,100.00
2022-09-29T18:06:22.371Z,100.00
2022-09-29T18:08:53.839Z,100.00
2022-09-29T18:11:22.675Z,100.00
2022-09-29T18:13:49.326Z,100.00
2022-09-29T18:16:19.048Z,100.00
2022-09-29T18:18:45.448Z,100.00
2022-09-29T18:21:12.765Z,100.00
2022-09-29T18:23:39.031Z,100.00
2022-09-29T18:26:06.560Z,100.00
2022-09-29T18:28:33.438Z,100.00
2022-09-29T18:31:28.759Z,100.00
2022-09-29T18:33:55.390Z,100.00
2022-09-29T18:36:21.697Z,100.00
2022-09-29T18:38:48.344Z,100.00
2022-09-29T18:41:19.668Z,100.00
2022-09-29T18:43:47.906Z,100.00
2022-09-29T18:46:14.618Z,100.00
2022-09-29T18:48:41.834Z,100.00
2022-09-29T18:51:08.424Z,100.00
2022-09-29T18:53:35.548Z,100.00
2022-09-29T18:56:03.451Z,100.00
2022-09-29T18:58:30.264Z,100.00
2022-09-29T19:00:57.342Z,100.00
2022-09-29T19:03:26.263Z,100.00
2022-09-29T19:05:54.106Z,100.00
2022-09-29T19:08:20.992Z,100.00
2022-09-29T19:10:55.882Z,100.00
2022-09-29T19:13:22.552Z,100.00
2022-09-29T19:15:49.473Z,100.00
2022-09-29T19:18:22.394Z,100.00
2022-09-29T19:20:54.447Z,100.00
2022-09-29T19:23:21.130Z,100.00
2022-09-29T19:25:48.897Z,100.00
2022-09-29T19:28:16.924Z,100.00
2022-09-29T19:30:45.856Z,100.00
2022-09-29T19:33:16.858Z,100.00
2022-09-29T19:35:46.841Z,100.00
2022-09-29T19:38:13.056Z,100.00
2022-09-29T19:40:39.303Z,100.00
2022-09-29T19:43:05.928Z,100.00
2022-09-29T19:45:37.553Z,100.00
2022-09-29T19:48:08.313Z,100.00
2022-09-29T19:50:53.364Z,100.00
2022-09-29T19:53:19.743Z,100.00
2022-09-29T19:55:47.591Z,100.00
2022-09-29T19:58:13.953Z,100.00
2022-09-29T20:00:40.890Z,100.00
2022-09-29T20:03:08.780Z,100.00
2022-09-29T20:05:35.174Z,100.00
2022-09-29T20:08:02.522Z,100.00
2022-09-29T20:10:29.219Z,100.00
2022-09-29T20:12:56.224Z,100.00
2022-09-29T20:15:23.113Z,100.00
2022-09-29T20:17:49.943Z,100.00
2022-09-29T20:20:17.014Z,100.00
2022-09-29T20:22:43.363Z,100.00
2022-09-29T20:25:10.106Z,100.00
2022-09-29T20:27:36.492Z,100.00
2022-09-29T20:30:05.037Z,100.00
2022-09-29T20:32:31.950Z,100.00
2022-09-29T20:34:58.447Z,100.00
2022-09-29T20:37:25.449Z,100.00
2022-09-29T20:39:52.164Z,100.00
2022-09-29T20:42:18.409Z,100.00
2022-09-29T20:44:44.678Z,100.00
2022-09-29T20:47:11.245Z,100.00
2022-09-29T20:49:39.122Z,100.00
2022-09-29T20:52:05.940Z,100.00
2022-09-29T20:54:33.040Z,100.00
2022-09-29T20:57:00.426Z,100.00
2022-09-29T20:59:26.734Z,100.00
2022-09-29T21:01:53.656Z,100.00
2022-09-29T21:04:21.126Z,100.00
2022-09-29T21:06:49.207Z,100.00
2022-09-29T21:09:18.549Z,100.00
2022-09-29T21:11:47.053Z,100.00
2022-09-29T21:14:18.497Z,100.00
2022-09-29T21:16:47.079Z,100.00
2022-09-29T21:19:14.433Z,100.00
2022-09-29T21:21:41.424Z,100.00
2022-09-29T21:24:09.014Z,100.00
2022-09-29T21:26:35.546Z,100.00
2022-09-29T21:29:02.139Z,100.00
2022-09-29T21:31:32.990Z,100.00
2022-09-29T21:34:02.416Z,100.00
2022-09-29T21:36:30.936Z,100.00
2022-09-29T21:39:02.823Z,100.00
2022-09-29T21:41:33.891Z,100.00
2022-09-29T21:44:02.446Z,100.00
2022-09-29T21:46:30.749Z,100.00
2022-09-29T21:48:59.976Z,100.00
2022-09-29T21:51:29.378Z,100.00
2022-09-29T21:53:57.598Z,100.00
2022-09-29T21:56:27.206Z,100.00
2022-09-29T21:58:54.921Z,100.00
2022-09-29T22:01:21.472Z,100.00
2022-09-29T22:03:49.020Z,100.00
2022-09-29T22:06:27.294Z,100.00
2022-09-29T22:08:54.232Z,100.00
2022-09-29T22:11:24.009Z,100.00
2022-09-29T22:13:51.337Z,100.00
2022-09-29T22:16:21.797Z,100.00
2022-09-29T22:19:05.935Z,100.00
2022-09-29T22:21:35.388Z,100.00
2022-09-29T22:24:05.473Z,100.00
2022-09-29T22:26:32.079Z,100.00
2022-09-29T22:29:01.681Z,100.00
2022-09-29T22:31:28.247Z,100.00
2022-09-29T22:33:57.128Z,100.00
2022-09-29T22:36:25.370Z,100.00
2022-09-29T22:38:51.592Z,100.00
2022-09-29T22:41:19.228Z,100.00
2022-09-29T22:43:45.772Z,100.00
2022-09-29T22:46:12.277Z,100.00
2022-09-29T22:48:39.116Z,100.00
2022-09-29T22:51:06.280Z,100.00
2022-09-29T22:53:32.941Z,100.00
2022-09-29T22:56:00.968Z,100.00
2022-09-29T22:58:27.730Z,100.00
2022-09-29T23:01:08.253Z,100.00
2022-09-29T23:03:35.693Z,100.00
2022-09-29T23:06:03.103Z,100.00
2022-09-29T23:08:30.565Z,100.00
2022-09-29T23:10:57.133Z,100.00
2022-09-29T23:13:23.933Z,100.00
2022-09-29T23:15:50.414Z,100.00
2022-09-29T23:18:20.307Z,100.00
2022-09-29T23:20:46.714Z,100.00
2022-09-29T23:23:13.268Z,100.00
2022-09-29T23:25:39.785Z,100.00
2022-09-29T23:28:06.316Z,100.00
2022-09-29T23:30:35.863Z,100.00
2022-09-29T23:33:02.683Z,100.00
2022-09-29T23:35:28.907Z,100.00
2022-09-29T23:38:13.946Z,100.00
2022-09-29T23:40:41.667Z,100.00
2022-09-29T23:43:08.112Z,100.00
2022-09-29T23:45:34.474Z,100.00
2022-09-29T23:48:01.231Z,100.00
2022-09-29T23:50:29.769Z,100.00
2022-09-29T23:52:55.997Z,100.00
2022-09-29T23:55:22.495Z,100.00
2022-09-29T23:57:48.730Z,100.00
